Terminal Aerodrome Forecast
Issued by NWS

Home | Current Version | Previous Version | Text Only | Print | Product List | Glossary On
Versions: 1 2 3 4 5 6 7 8 9 10 11 12 13
000
FTUS45 KRIW 012300
TAFBPI
TAF
KBPI 012324Z 0200/0224 30013G22KT P6SM SKC
     FM020200 34009KT P6SM SKC
     FM020700 VRB04KT P6SM SKC=

USA.gov is the U.S. government's official web portal to all federal, state and local government web resources and services.